createdAt,value
2022-08-18T00:02:30.642Z,22.70
2022-08-18T00:06:34.216Z,22.70
2022-08-18T00:10:37.058Z,22.70
2022-08-18T00:14:39.865Z,22.60
2022-08-18T00:18:44.149Z,22.60
2022-08-18T00:22:47.381Z,22.60
2022-08-18T00:26:50.260Z,22.50
2022-08-18T00:30:53.768Z,22.50
2022-08-18T00:34:58.533Z,22.40
2022-08-18T00:39:01.404Z,22.40
2022-08-18T00:43:05.747Z,22.30
2022-08-18T00:47:08.577Z,22.20
2022-08-18T00:51:13.939Z,22.20
2022-08-18T00:55:18.262Z,22.10
2022-08-18T00:59:24.599Z,22.10
2022-08-18T01:03:29.044Z,22.00
2022-08-18T01:07:36.859Z,21.90
2022-08-18T01:11:39.898Z,21.80
2022-08-18T01:15:42.764Z,21.80
2022-08-18T01:20:03.114Z,21.70
2022-08-18T01:24:09.725Z,21.60
2022-08-18T01:28:12.536Z,21.50
2022-08-18T01:32:16.558Z,21.50
2022-08-18T01:36:20.590Z,21.40
2022-08-18T01:41:24.227Z,21.40
2022-08-18T01:44:48.948Z,21.30
2022-08-18T01:48:51.904Z,21.20
2022-08-18T01:52:56.041Z,21.20
2022-08-18T01:57:01.028Z,21.10
2022-08-18T02:01:09.411Z,21.10
2022-08-18T02:05:14.275Z,21.10
2022-08-18T02:09:17.119Z,21.00
2022-08-18T02:13:28.676Z,21.00
2022-08-18T02:17:37.382Z,20.90
2022-08-18T02:21:40.194Z,20.90
2022-08-18T02:25:43.505Z,20.80
2022-08-18T02:29:47.703Z,20.80
2022-08-18T02:33:52.401Z,20.80
2022-08-18T02:37:55.569Z,20.80
2022-08-18T02:41:58.520Z,20.70
2022-08-18T02:46:03.128Z,20.70
2022-08-18T02:50:06.395Z,20.70
2022-08-18T02:54:11.418Z,20.60
2022-08-18T02:58:14.336Z,20.60
2022-08-18T03:02:18.617Z,20.60
2022-08-18T03:06:22.727Z,20.50
2022-08-18T03:10:33.551Z,20.50
2022-08-18T03:14:37.642Z,20.50
2022-08-18T03:18:42.514Z,20.40
2022-08-18T03:22:45.367Z,20.40
2022-08-18T03:26:48.517Z,20.30
2022-08-18T03:30:51.362Z,20.30
2022-08-18T03:34:55.645Z,20.30
2022-08-18T03:38:58.926Z,20.20
2022-08-18T03:43:49.853Z,20.10
2022-08-18T03:47:29.374Z,20.10
2022-08-18T03:51:33.972Z,20.00
2022-08-18T03:55:36.848Z,20.00
2022-08-18T03:59:43.757Z,19.90
2022-08-18T04:03:47.885Z,19.80
2022-08-18T04:07:54.487Z,19.80
2022-08-18T04:11:58.244Z,19.70
2022-08-18T04:16:01.159Z,19.70
2022-08-18T04:20:04.496Z,19.60
2022-08-18T04:24:09.279Z,19.60
2022-08-18T04:28:12.080Z,19.50
2022-08-18T04:32:16.180Z,19.50
2022-08-18T04:36:20.646Z,19.50
2022-08-18T04:40:27.258Z,19.50
2022-08-18T04:44:30.214Z,19.40
2022-08-18T04:48:34.048Z,19.40
2022-08-18T04:52:54.438Z,19.40
2022-08-18T04:56:58.665Z,19.40
2022-08-18T05:01:02.878Z,19.40
2022-08-18T05:05:06.079Z,19.40
2022-08-18T05:09:09.863Z,19.40
2022-08-18T05:13:18.160Z,19.40
2022-08-18T05:17:21.027Z,19.40
2022-08-18T05:21:25.424Z,19.40
2022-08-18T05:25:29.398Z,19.50
2022-08-18T05:29:41.646Z,19.50
2022-08-18T05:33:49.381Z,19.50
2022-08-18T05:38:01.515Z,19.60
2022-08-18T05:42:07.128Z,19.70
2022-08-18T05:46:11.564Z,19.80
2022-08-18T05:50:16.483Z,19.80
2022-08-18T05:54:37.787Z,19.90
2022-08-18T05:58:43.242Z,20.00
2022-08-18T06:02:49.734Z,19.90
2022-08-18T06:06:54.604Z,20.00
2022-08-18T06:10:57.617Z,20.00
2022-08-18T06:15:05.828Z,20.00
2022-08-18T06:19:17.335Z,20.00
2022-08-18T06:23:28.351Z,20.00
2022-08-18T06:27:39.648Z,20.10
2022-08-18T06:31:46.395Z,20.20
2022-08-18T06:35:51.959Z,20.30
2022-08-18T06:39:57.130Z,20.30
2022-08-18T06:44:01.322Z,20.40
2022-08-18T06:48:15.078Z,20.50
2022-08-18T06:52:24.897Z,20.60
2022-08-18T06:56:33.236Z,20.70
2022-08-18T07:00:37.485Z,20.80
2022-08-18T07:04:43.765Z,20.90
2022-08-18T07:08:48.296Z,21.00
2022-08-18T07:12:51.845Z,21.20
2022-08-18T07:17:07.054Z,21.30
2022-08-18T07:21:10.187Z,21.40
2022-08-18T07:25:19.226Z,21.50
2022-08-18T07:29:22.049Z,21.70
2022-08-18T07:33:26.931Z,21.80
2022-08-18T07:37:31.068Z,21.90
2022-08-18T07:41:40.967Z,21.90
2022-08-18T07:45:44.477Z,21.90
2022-08-18T07:50:15.702Z,22.00
2022-08-18T07:54:47.133Z,22.00
2022-08-18T07:58:45.801Z,22.10
2022-08-18T08:02:54.776Z,22.20
2022-08-18T08:07:23.368Z,22.20
2022-08-18T08:11:29.819Z,22.30
2022-08-18T08:15:38.469Z,22.40
2022-08-18T08:20:03.929Z,22.50
2022-08-18T08:24:12.183Z,22.50
2022-08-18T08:28:23.327Z,22.50
2022-08-18T08:32:31.445Z,22.60
2022-08-18T08:36:36.950Z,22.70
2022-08-18T08:45:07.723Z,22.80
2022-08-18T08:49:17.035Z,22.90
2022-08-18T08:53:22.502Z,23.10
2022-08-18T08:57:28.450Z,23.10
2022-08-18T09:01:34.726Z,23.20
2022-08-18T09:05:41.588Z,23.30
2022-08-18T09:10:02.155Z,23.50
2022-08-18T09:14:15.159Z,23.60
2022-08-18T09:18:36.431Z,23.70
2022-08-18T09:22:46.902Z,23.80
2022-08-18T09:26:52.824Z,23.90
2022-08-18T09:31:10.648Z,23.90
2022-08-18T09:35:19.416Z,23.90
2022-08-18T09:39:53.823Z,23.90
2022-08-18T09:44:18.220Z,24.00
2022-08-18T09:48:33.902Z,24.00
2022-08-18T09:52:53.755Z,24.10
2022-08-18T09:57:20.874Z,24.10
2022-08-18T10:01:37.233Z,24.10
2022-08-18T10:05:41.050Z,24.20
2022-08-18T10:09:48.257Z,24.20
2022-08-18T10:14:09.536Z,24.20
2022-08-18T10:18:24.350Z,24.20
2022-08-18T10:22:43.307Z,24.20
2022-08-18T10:27:06.894Z,24.30
2022-08-18T10:31:10.276Z,24.30
2022-08-18T10:35:34.391Z,24.40
2022-08-18T10:44:28.180Z,24.50
2022-08-18T10:48:34.238Z,24.70
2022-08-18T10:52:58.975Z,25.00
2022-08-18T10:57:17.971Z,25.40
2022-08-18T11:01:27.107Z,25.60
2022-08-18T12:02:26.959Z,27.40
2022-08-18T12:06:30.661Z,27.50
2022-08-18T12:10:33.813Z,27.80
2022-08-18T12:14:52.001Z,28.10
2022-08-18T12:18:56.174Z,28.20
2022-08-18T12:22:59.326Z,28.20
2022-08-18T12:27:02.198Z,28.40
2022-08-18T12:31:17.276Z,28.60
2022-08-18T12:35:22.486Z,28.80
2022-08-18T12:39:26.027Z,28.90
2022-08-18T12:43:32.255Z,28.90
2022-08-18T12:47:38.392Z,28.90
2022-08-18T12:51:46.891Z,28.90
2022-08-18T12:55:53.518Z,28.90
2022-08-18T12:59:56.340Z,28.90
2022-08-18T13:04:13.225Z,28.90
2022-08-18T13:08:30.060Z,28.90
2022-08-18T13:12:34.088Z,29.00
2022-08-18T13:16:53.555Z,29.10
2022-08-18T13:20:58.571Z,29.20
2022-08-18T13:25:05.457Z,29.30
2022-08-18T13:29:10.138Z,29.40
2022-08-18T13:33:34.991Z,29.50
2022-08-18T13:37:36.389Z,29.70
2022-08-18T13:41:43.320Z,29.90
2022-08-18T13:45:53.475Z,30.00
2022-08-18T13:49:59.983Z,30.00
2022-08-18T13:54:30.438Z,30.10
2022-08-18T13:58:27.216Z,30.20
2022-08-18T14:02:30.143Z,30.40
2022-08-18T14:06:33.246Z,30.50
2022-08-18T14:10:38.550Z,30.70
2022-08-18T14:14:43.014Z,30.70
2022-08-18T14:19:09.934Z,30.70
2022-08-18T14:23:33.204Z,30.50
2022-08-18T14:27:37.335Z,30.40
2022-08-18T14:31:42.231Z,30.30
2022-08-18T14:36:06.226Z,30.20
2022-08-18T14:40:12.461Z,30.20
2022-08-18T14:44:17.800Z,30.30
2022-08-18T14:48:30.087Z,30.40
2022-08-18T14:52:33.112Z,30.40
2022-08-18T14:56:38.244Z,30.40
2022-08-18T15:00:53.666Z,30.50
2022-08-18T15:05:00.644Z,30.50
2022-08-18T15:09:23.544Z,30.60
2022-08-18T15:13:27.705Z,30.60
2022-08-18T15:17:38.701Z,30.50
2022-08-18T15:22:00.314Z,30.40
2022-08-18T15:26:03.892Z,30.30
2022-08-18T15:30:11.333Z,30.10
2022-08-18T15:34:14.244Z,30.00
2022-08-18T15:38:26.006Z,29.90
2022-08-18T15:42:30.030Z,29.80
2022-08-18T15:46:33.636Z,29.80
2022-08-18T15:50:39.038Z,29.80
2022-08-18T15:54:43.755Z,29.90
2022-08-18T15:58:53.441Z,29.90
2022-08-18T16:02:57.501Z,29.70
2022-08-18T16:07:00.451Z,29.70
2022-08-18T16:11:09.483Z,29.60
2022-08-18T16:15:21.176Z,29.50
2022-08-18T16:19:25.731Z,29.40
2022-08-18T16:23:28.781Z,29.50
2022-08-18T16:27:34.392Z,29.50
2022-08-18T16:31:37.193Z,29.60
2022-08-18T16:35:40.012Z,29.70
2022-08-18T16:39:48.230Z,29.80
2022-08-18T16:43:52.582Z,29.80
2022-08-18T16:47:55.430Z,29.90
2022-08-18T16:51:58.225Z,30.10
2022-08-18T16:56:01.083Z,30.10
2022-08-18T17:00:24.495Z,30.20
2022-08-18T17:04:29.454Z,30.30
2022-08-18T17:08:34.257Z,30.20
2022-08-18T17:12:37.314Z,30.10
2022-08-18T17:16:41.534Z,30.00
2022-08-18T17:20:44.405Z,29.90
2022-08-18T17:24:49.682Z,29.80
2022-08-18T17:28:55.572Z,29.70
2022-08-18T17:33:03.926Z,29.60
2022-08-18T17:37:09.111Z,29.40
2022-08-18T17:45:44.307Z,29.10
2022-08-18T17:50:27.802Z,28.90
2022-08-18T17:54:36.461Z,28.70
2022-08-18T17:58:41.593Z,28.60
2022-08-18T18:02:45.419Z,28.40
2022-08-18T18:06:49.699Z,28.20
2022-08-18T18:11:08.640Z,28.10
2022-08-18T18:15:12.995Z,27.80
2022-08-18T18:19:15.800Z,27.80
2022-08-18T18:23:21.476Z,27.60
2022-08-18T18:27:29.347Z,27.50
2022-08-18T18:31:33.358Z,27.40
2022-08-18T18:35:54.500Z,27.30
2022-08-18T18:40:00.247Z,27.10
2022-08-18T18:44:07.713Z,26.90
2022-08-18T18:48:51.236Z,26.80
2022-08-18T18:52:42.268Z,26.60
2022-08-18T18:56:50.224Z,26.50
2022-08-18T19:00:59.431Z,26.30
2022-08-18T19:05:05.723Z,26.10
2022-08-18T19:09:09.978Z,26.00
2022-08-18T19:13:25.103Z,25.90
2022-08-18T19:17:40.151Z,25.70
2022-08-18T19:22:05.488Z,25.50
2022-08-18T19:26:10.623Z,25.40
2022-08-18T19:30:16.508Z,25.20
2022-08-18T19:34:22.787Z,25.10
2022-08-18T19:38:35.050Z,25.00
2022-08-18T19:42:41.121Z,24.90
2022-08-18T19:46:48.332Z,24.70
2022-08-18T19:50:53.996Z,24.60
2022-08-18T19:55:01.473Z,24.50
2022-08-18T19:59:19.547Z,24.40
2022-08-18T20:03:36.222Z,24.30
2022-08-18T20:07:59.956Z,24.20
2022-08-18T20:12:08.237Z,24.00
2022-08-18T20:16:16.132Z,23.90
2022-08-18T20:20:21.946Z,23.80
2022-08-18T20:24:42.468Z,23.70
2022-08-18T20:28:45.291Z,23.60
2022-08-18T20:33:05.466Z,23.50
2022-08-18T20:37:09.640Z,23.40
2022-08-18T20:41:27.086Z,23.30
2022-08-18T20:45:30.371Z,23.30
2022-08-18T20:49:40.661Z,23.20
2022-08-18T20:53:56.978Z,23.10
2022-08-18T20:58:01.675Z,23.00
2022-08-18T21:02:09.432Z,23.00
2022-08-18T21:06:14.407Z,22.90
2022-08-18T21:10:20.775Z,22.80
2022-08-18T21:14:30.061Z,22.80
2022-08-18T21:18:35.078Z,22.80
2022-08-18T21:22:40.539Z,22.70
2022-08-18T21:26:47.026Z,22.70
2022-08-18T21:30:57.107Z,22.60
2022-08-18T21:35:22.279Z,22.60
2022-08-18T21:39:25.956Z,22.60
2022-08-18T21:43:41.342Z,22.50
2022-08-18T21:47:50.555Z,22.50
2022-08-18T21:51:53.847Z,22.40
2022-08-18T21:55:58.109Z,22.40
2022-08-18T22:00:19.914Z,22.30
2022-08-18T22:04:25.734Z,22.30
2022-08-18T22:08:29.832Z,22.30
2022-08-18T22:12:51.222Z,22.30
2022-08-18T22:17:15.571Z,22.20
2022-08-18T22:21:33.716Z,22.20
2022-08-18T22:25:35.769Z,22.10
2022-08-18T22:29:45.746Z,22.20
2022-08-18T22:33:48.724Z,22.10
2022-08-18T22:37:52.955Z,22.10
2022-08-18T22:41:56.027Z,22.00
2022-08-18T22:45:58.840Z,22.00
2022-08-18T22:50:01.840Z,21.90
2022-08-18T22:54:08.406Z,21.90
2022-08-18T22:58:11.429Z,21.80
2022-08-18T23:02:14.907Z,21.80
2022-08-18T23:06:28.554Z,21.70
2022-08-18T23:10:32.756Z,21.70
2022-08-18T23:14:35.724Z,21.60
2022-08-18T23:18:38.552Z,21.60
2022-08-18T23:22:41.790Z,21.60
2022-08-18T23:26:46.616Z,21.50
2022-08-18T23:30:50.430Z,21.50
2022-08-18T23:34:53.232Z,21.50
2022-08-18T23:38:56.068Z,21.40
2022-08-18T23:43:00.243Z,21.40
2022-08-18T23:47:03.342Z,21.40
2022-08-18T23:51:06.494Z,21.40
2022-08-18T23:55:10.674Z,21.40
2022-08-18T23:59:15.418Z,21.40
